Terminal Aerodrome Forecast
Issued by NWS Pittsburgh, PA

Current Version | Previous Version | Text Only | Print | Product List | Glossary On
Versions: 1 2 3 4 5 6 7 8 9 10 11 12 13 14 15 16 17 18 19 20 21 22 23 24 25 26 27
000
FTUS41 KPBZ 252100 AAA
TAFPIT
TAF AMD
KPIT 252101Z 2521/2624 27010KT P6SM SCT035
     FM261000 01004KT P6SM -SN OVC050
     FM261400 02005KT 2SM -SN BR OVC015
     FM262000 05005KT P6SM -SN OVC025=

USA.gov is the U.S. government's official web portal to all federal, state and local government web resources and services.